Aviation Digital Data Service (ADDS)

Output produced by TAFs form (0531 UTC 28 November 2014)
found at http://www.aviationweather.gov/adds/tafs/
 
KALB 280455Z 2805/2824 34005KT P6SM -SN SCT006 OVC070 
     FM280600 32003KT P6SM VCSH BKN070 
     FM281000 32003KT P6SM SCT025 BKN035 
     FM281400 31010G15KT P6SM BKN045